createdAt,value
2018-07-27T00:01:49.024Z,100.00
2018-07-27T00:04:19.009Z,100.00
2018-07-27T00:06:49.204Z,100.00
2018-07-27T00:09:19.291Z,100.00
2018-07-27T00:11:49.347Z,100.00
2018-07-27T00:14:19.505Z,100.00
2018-07-27T00:16:49.663Z,100.00
2018-07-27T00:19:19.675Z,100.00
2018-07-27T00:21:49.823Z,100.00
2018-07-27T00:24:20.260Z,100.00
2018-07-27T00:26:50.203Z,100.00
2018-07-27T00:29:20.455Z,100.00
2018-07-27T00:31:50.411Z,100.00
2018-07-27T00:34:20.656Z,100.00
2018-07-27T00:36:50.911Z,100.00
2018-07-27T00:39:21.260Z,100.00
2018-07-27T00:41:51.341Z,100.00
2018-07-27T00:44:21.319Z,100.00
2018-07-27T00:46:51.445Z,100.00
2018-07-27T00:49:21.440Z,100.00
2018-07-27T00:51:51.396Z,100.00
2018-07-27T00:54:21.588Z,100.00
2018-07-27T00:56:51.464Z,100.00
2018-07-27T00:59:21.563Z,100.00
2018-07-27T01:01:51.692Z,100.00
2018-07-27T01:04:21.756Z,100.00
2018-07-27T01:06:51.925Z,100.00
2018-07-27T01:09:21.895Z,100.00
2018-07-27T01:11:52.314Z,100.00
2018-07-27T01:14:22.698Z,100.00
2018-07-27T01:16:52.789Z,100.00
2018-07-27T01:19:22.756Z,100.00
2018-07-27T01:21:52.772Z,100.00
2018-07-27T01:24:23.047Z,100.00
2018-07-27T01:26:53.186Z,100.00
2018-07-27T01:29:23.853Z,100.00
2018-07-27T01:31:53.799Z,100.00
2018-07-27T01:34:24.064Z,100.00
2018-07-27T01:36:54.344Z,100.00
2018-07-27T01:39:24.336Z,100.00
2018-07-27T01:41:54.281Z,100.00
2018-07-27T01:44:24.336Z,100.00
2018-07-27T01:46:54.212Z,100.00
2018-07-27T01:49:24.091Z,100.00
2018-07-27T01:51:54.852Z,100.00
2018-07-27T01:54:24.796Z,100.00
2018-07-27T01:56:54.923Z,100.00
2018-07-27T01:59:24.939Z,100.00
2018-07-27T02:01:55.015Z,100.00
2018-07-27T02:04:25.472Z,100.00
2018-07-27T02:06:55.852Z,100.00
2018-07-27T02:09:26.300Z,100.00
2018-07-27T02:11:57.103Z,100.00
2018-07-27T02:14:27.407Z,100.00
2018-07-27T02:16:57.771Z,100.00
2018-07-27T02:19:27.895Z,100.00
2018-07-27T02:21:57.880Z,100.00
2018-07-27T02:24:27.940Z,100.00
2018-07-27T02:26:57.924Z,100.00
2018-07-27T02:29:28.099Z,100.00
2018-07-27T02:31:58.172Z,100.00
2018-07-27T02:34:28.257Z,100.00
2018-07-27T02:36:58.397Z,100.00
2018-07-27T02:39:28.437Z,100.00
2018-07-27T02:41:58.584Z,100.00
2018-07-27T02:44:28.352Z,100.00
2018-07-27T02:46:58.229Z,100.00
2018-07-27T02:49:28.157Z,100.00
2018-07-27T02:51:58.079Z,100.00
2018-07-27T02:54:27.915Z,100.00
2018-07-27T02:56:57.984Z,100.00
2018-07-27T02:59:27.977Z,100.00
2018-07-27T03:01:57.824Z,100.00
2018-07-27T03:04:28.316Z,100.00
2018-07-27T03:06:58.608Z,100.00
2018-07-27T03:09:29.356Z,100.00
2018-07-27T03:11:59.605Z,100.00
2018-07-27T03:14:29.619Z,100.00
2018-07-27T03:16:59.761Z,100.00
2018-07-27T03:19:29.919Z,100.00
2018-07-27T03:22:00.226Z,100.00
2018-07-27T03:24:30.326Z,100.00
2018-07-27T03:27:00.207Z,100.00
2018-07-27T03:29:30.319Z,100.00
2018-07-27T03:32:00.220Z,100.00
2018-07-27T03:34:30.281Z,100.00
2018-07-27T03:37:00.886Z,100.00
2018-07-27T03:39:30.858Z,100.00
2018-07-27T03:42:01.501Z,100.00
2018-07-27T03:44:31.434Z,100.00
2018-07-27T03:47:01.284Z,100.00
2018-07-27T03:49:31.284Z,100.00
2018-07-27T03:52:01.239Z,100.00
2018-07-27T03:54:31.393Z,100.00
2018-07-27T03:57:01.380Z,100.00
2018-07-27T03:59:31.336Z,100.00
2018-07-27T04:02:01.635Z,100.00
2018-07-27T04:04:32.160Z,100.00
2018-07-27T04:07:02.351Z,100.00
2018-07-27T04:09:32.803Z,100.00
2018-07-27T04:12:03.118Z,100.00
2018-07-27T04:14:33.553Z,100.00
2018-07-27T04:17:03.846Z,100.00
2018-07-27T04:19:34.017Z,100.00
2018-07-27T04:22:04.704Z,100.00
2018-07-27T04:24:34.889Z,100.00
2018-07-27T04:27:05.413Z,100.00
2018-07-27T04:29:35.475Z,100.00
2018-07-27T04:32:05.463Z,100.00
2018-07-27T04:34:35.572Z,100.00
2018-07-27T04:37:05.915Z,100.00
2018-07-27T04:39:36.023Z,100.00
2018-07-27T04:42:06.375Z,100.00
2018-07-27T04:44:36.143Z,100.00
2018-07-27T04:47:05.884Z,100.00
2018-07-27T04:49:35.775Z,100.00
2018-07-27T04:52:05.732Z,100.00
2018-07-27T04:54:35.831Z,100.00
2018-07-27T04:57:06.256Z,100.00
2018-07-27T04:59:36.369Z,100.00
2018-07-27T05:02:06.900Z,100.00
2018-07-27T05:04:37.060Z,100.00
2018-07-27T05:07:07.583Z,100.00
2018-07-27T05:09:37.824Z,100.00
2018-07-27T05:12:07.696Z,100.00
2018-07-27T05:14:37.835Z,100.00
2018-07-27T05:17:08.243Z,100.00
2018-07-27T05:19:38.408Z,100.00
2018-07-27T05:22:08.377Z,100.00
2018-07-27T05:24:38.511Z,100.00
2018-07-27T05:27:08.731Z,100.00
2018-07-27T05:29:39.256Z,100.00
2018-07-27T05:32:09.135Z,100.00
2018-07-27T05:34:39.289Z,100.00
2018-07-27T05:37:09.310Z,100.00
2018-07-27T05:39:39.438Z,98.79
2018-07-27T05:42:09.682Z,99.30
2018-07-27T05:44:39.972Z,97.41
2018-07-27T05:47:10.134Z,97.75
2018-07-27T05:49:40.076Z,96.68
2018-07-27T05:52:10.071Z,94.81
2018-07-27T05:54:40.227Z,94.75
2018-07-27T05:57:10.597Z,95.26
2018-07-27T05:59:41.056Z,95.95
2018-07-27T06:02:11.920Z,95.40
2018-07-27T06:04:41.941Z,95.93
2018-07-27T06:07:11.992Z,96.45
2018-07-27T06:09:42.015Z,96.73
2018-07-27T06:12:12.575Z,96.20
2018-07-27T06:14:42.445Z,96.01
2018-07-27T06:17:12.647Z,93.67
2018-07-27T06:19:42.651Z,92.11
2018-07-27T06:22:12.817Z,89.09
2018-07-27T06:24:48.544Z,89.20
2018-07-27T06:27:19.059Z,86.58
2018-07-27T06:29:49.176Z,86.11
2018-07-27T06:32:19.972Z,85.56
2018-07-27T06:34:50.291Z,83.75
2018-07-27T06:37:20.539Z,86.22
2018-07-27T06:39:50.649Z,84.24
2018-07-27T06:42:20.916Z,82.00
2018-07-27T06:44:51.048Z,81.19
2018-07-27T06:47:21.117Z,77.00
2018-07-27T06:49:51.132Z,72.97
2018-07-27T06:52:21.118Z,72.16
2018-07-27T06:54:51.073Z,78.44
2018-07-27T06:57:21.613Z,76.77
2018-07-27T06:59:51.988Z,69.73
2018-07-27T07:02:22.472Z,68.12
2018-07-27T07:04:52.797Z,68.53
2018-07-27T07:07:22.797Z,67.88
2018-07-27T07:09:53.244Z,69.10
2018-07-27T07:12:23.132Z,70.46
2018-07-27T07:14:53.473Z,71.16
2018-07-27T07:17:24.061Z,68.70
2018-07-27T07:19:53.997Z,66.36
2018-07-27T07:22:23.883Z,65.31
2018-07-27T07:24:53.923Z,64.43
2018-07-27T07:27:23.920Z,66.80
2018-07-27T07:29:54.061Z,68.55
2018-07-27T07:32:24.016Z,70.62
2018-07-27T07:34:54.729Z,70.76
2018-07-27T07:37:25.389Z,68.16
2018-07-27T07:39:55.479Z,69.34
2018-07-27T07:42:25.388Z,67.50
2018-07-27T07:44:55.187Z,69.02
2018-07-27T07:47:25.784Z,68.18
2018-07-27T07:49:55.896Z,64.63
2018-07-27T07:52:26.303Z,69.26
2018-07-27T07:54:56.213Z,69.22
2018-07-27T07:57:26.296Z,65.56
2018-07-27T07:59:56.888Z,67.68
2018-07-27T08:02:26.960Z,66.38
2018-07-27T08:04:57.139Z,66.96
2018-07-27T08:07:27.819Z,66.25
2018-07-27T08:09:58.055Z,66.38
2018-07-27T08:12:28.428Z,65.63
2018-07-27T08:14:58.337Z,66.52
2018-07-27T08:17:28.320Z,65.70
2018-07-27T08:19:58.305Z,70.26
2018-07-27T08:22:28.312Z,67.14
2018-07-27T08:24:58.312Z,65.34
2018-07-27T08:27:28.422Z,68.21
2018-07-27T08:29:58.893Z,69.60
2018-07-27T08:32:29.174Z,67.16
2018-07-27T08:34:59.092Z,64.65
2018-07-27T08:37:29.496Z,63.51
2018-07-27T08:40:00.021Z,64.53
2018-07-27T08:42:30.432Z,63.16
2018-07-27T08:45:00.433Z,65.17
2018-07-27T08:47:31.376Z,66.75
2018-07-27T08:50:01.540Z,65.55
2018-07-27T08:52:32.109Z,63.10
2018-07-27T08:55:02.340Z,63.36
2018-07-27T08:57:32.504Z,62.46
2018-07-27T09:00:02.876Z,61.08
2018-07-27T09:02:33.136Z,60.85
2018-07-27T09:05:03.655Z,61.04
2018-07-27T09:07:34.356Z,62.01
2018-07-27T09:10:05.324Z,65.18
2018-07-27T09:12:35.910Z,64.47
2018-07-27T09:15:07.041Z,63.62
2018-07-27T09:17:37.596Z,62.69
2018-07-27T09:20:08.016Z,64.90
2018-07-27T09:22:38.272Z,66.60
2018-07-27T09:25:09.180Z,65.82
2018-07-27T09:27:39.592Z,66.95
2018-07-27T09:30:10.376Z,63.46
2018-07-27T09:32:40.486Z,68.66
2018-07-27T09:35:10.965Z,67.85
2018-07-27T09:37:41.124Z,66.37
2018-07-27T09:40:11.508Z,65.68
2018-07-27T09:42:41.888Z,66.85
2018-07-27T09:45:12.220Z,65.17
2018-07-27T09:47:42.760Z,64.52
2018-07-27T09:50:12.942Z,64.17
2018-07-27T09:52:43.166Z,63.29
2018-07-27T09:55:13.804Z,64.37
2018-07-27T09:57:44.513Z,64.59
2018-07-27T10:00:19.739Z,62.98
2018-07-27T10:02:50.021Z,61.96
2018-07-27T10:05:20.173Z,62.09
2018-07-27T10:07:50.469Z,62.56
2018-07-27T10:10:20.874Z,62.00
2018-07-27T10:12:51.618Z,65.46
2018-07-27T10:15:22.041Z,63.64
2018-07-27T10:17:52.597Z,64.00
2018-07-27T10:20:23.000Z,64.71
2018-07-27T10:22:53.262Z,68.56
2018-07-27T10:25:23.535Z,68.14
2018-07-27T10:27:54.331Z,66.31
2018-07-27T10:30:24.686Z,63.17
2018-07-27T10:32:55.512Z,62.33
2018-07-27T10:35:25.659Z,67.71
2018-07-27T10:37:56.839Z,74.82
2018-07-27T10:40:27.639Z,76.32
2018-07-27T10:42:58.383Z,82.66
2018-07-27T10:45:28.455Z,87.68
2018-07-27T10:47:58.889Z,91.64
2018-07-27T10:50:29.284Z,95.42
2018-07-27T10:53:00.070Z,95.26
2018-07-27T10:55:30.597Z,94.89
2018-07-27T10:58:00.940Z,94.23
2018-07-27T11:00:31.340Z,94.47
2018-07-27T11:03:01.901Z,94.49
2018-07-27T11:05:32.937Z,93.95
2018-07-27T11:08:03.124Z,95.02
2018-07-27T11:10:33.729Z,100.00
2018-07-27T11:13:04.013Z,100.00
2018-07-27T11:15:34.592Z,100.00
2018-07-27T11:18:04.862Z,100.00
2018-07-27T11:20:35.699Z,100.00
2018-07-27T11:23:06.378Z,100.00
2018-07-27T11:25:36.936Z,100.00
2018-07-27T11:28:07.258Z,100.00
2018-07-27T11:30:38.060Z,100.00
2018-07-27T11:33:08.333Z,100.00
2018-07-27T11:35:38.752Z,100.00
2018-07-27T11:38:09.714Z,100.00
2018-07-27T11:40:40.215Z,100.00
2018-07-27T11:43:10.572Z,100.00
2018-07-27T11:45:40.640Z,100.00
2018-07-27T11:48:11.091Z,100.00
2018-07-27T11:50:41.888Z,100.00
2018-07-27T11:53:12.417Z,100.00
2018-07-27T11:55:43.246Z,100.00
2018-07-27T11:58:13.489Z,100.00
2018-07-27T12:00:44.259Z,100.00
2018-07-27T12:03:15.013Z,100.00
2018-07-27T12:05:45.473Z,100.00
2018-07-27T12:08:16.434Z,100.00
2018-07-27T12:10:47.194Z,100.00
2018-07-27T12:13:18.001Z,100.00
2018-07-27T12:15:48.571Z,100.00
2018-07-27T12:18:19.125Z,100.00
2018-07-27T12:20:49.313Z,100.00
2018-07-27T12:23:20.081Z,100.00
2018-07-27T12:25:50.492Z,100.00
2018-07-27T12:28:21.309Z,100.00
2018-07-27T12:30:51.513Z,100.00
2018-07-27T12:33:22.477Z,100.00
2018-07-27T12:35:53.103Z,100.00
2018-07-27T12:38:23.614Z,100.00
2018-07-27T12:40:53.735Z,100.00
2018-07-27T12:43:23.921Z,100.00
2018-07-27T12:45:53.682Z,100.00
2018-07-27T12:48:23.707Z,100.00
2018-07-27T12:50:53.676Z,100.00
2018-07-27T12:53:23.788Z,100.00
2018-07-27T12:55:53.627Z,100.00
2018-07-27T12:58:24.088Z,100.00
2018-07-27T13:00:55.533Z,100.00
2018-07-27T13:03:26.204Z,100.00
2018-07-27T13:05:56.532Z,100.00
2018-07-27T13:08:26.845Z,100.00
2018-07-27T13:10:57.091Z,100.00
2018-07-27T13:13:27.617Z,100.00
2018-07-27T13:15:57.960Z,100.00
2018-07-27T13:18:28.184Z,100.00
2018-07-27T13:20:58.237Z,100.00
2018-07-27T13:23:28.479Z,100.00
2018-07-27T13:26:24.690Z,100.00
2018-07-27T13:28:40.937Z,100.00
2018-07-27T13:31:11.890Z,100.00
2018-07-27T13:34:55.569Z,100.00
2018-07-27T13:37:27.704Z,100.00
2018-07-27T13:39:58.777Z,100.00
2018-07-27T13:42:30.124Z,100.00
2018-07-27T13:45:00.886Z,100.00
2018-07-27T13:47:31.067Z,100.00
2018-07-27T13:50:01.316Z,100.00
2018-07-27T13:52:31.651Z,100.00
2018-07-27T13:55:02.261Z,100.00
2018-07-27T13:57:32.857Z,100.00
2018-07-27T14:00:03.208Z,100.00
2018-07-27T14:02:33.801Z,100.00
2018-07-27T14:05:04.045Z,100.00
2018-07-27T14:07:34.184Z,100.00
2018-07-27T14:10:04.369Z,100.00
2018-07-27T14:12:34.470Z,100.00
2018-07-27T14:15:04.585Z,100.00
2018-07-27T14:17:40.044Z,100.00
2018-07-27T14:20:10.521Z,100.00
2018-07-27T14:22:40.583Z,100.00
2018-07-27T14:25:10.739Z,100.00
2018-07-27T14:27:40.715Z,100.00
2018-07-27T14:30:11.181Z,100.00
2018-07-27T14:32:41.176Z,100.00
2018-07-27T14:35:11.499Z,100.00
2018-07-27T14:37:41.698Z,100.00
2018-07-27T14:40:11.912Z,98.16
2018-07-27T14:42:41.842Z,98.23
2018-07-27T14:45:11.622Z,99.10
2018-07-27T14:47:41.740Z,100.00
2018-07-27T14:50:11.593Z,98.92
2018-07-27T14:52:42.149Z,100.00
2018-07-27T14:55:12.191Z,99.86
2018-07-27T14:57:42.248Z,100.00
2018-07-27T15:00:12.179Z,100.00
2018-07-27T15:02:42.325Z,100.00
2018-07-27T15:05:12.293Z,100.00
2018-07-27T15:07:42.386Z,100.00
2018-07-27T15:10:12.332Z,100.00
2018-07-27T15:12:42.372Z,100.00
2018-07-27T15:15:12.453Z,100.00
2018-07-27T15:17:42.686Z,97.74
2018-07-27T15:20:12.531Z,94.27
2018-07-27T15:22:42.752Z,88.04
2018-07-27T15:25:12.861Z,85.72
2018-07-27T15:27:42.856Z,79.82
2018-07-27T15:30:12.827Z,82.12
2018-07-27T15:32:43.411Z,85.26
2018-07-27T15:35:13.317Z,82.81
2018-07-27T15:37:44.165Z,83.44
2018-07-27T15:40:14.525Z,83.46
2018-07-27T15:42:44.639Z,79.54
2018-07-27T15:45:14.749Z,82.02
2018-07-27T15:47:45.279Z,85.95
2018-07-27T15:50:15.596Z,85.50
2018-07-27T15:52:45.633Z,84.23
2018-07-27T15:55:15.616Z,84.17
2018-07-27T15:57:45.667Z,79.47
2018-07-27T16:00:15.785Z,80.62
2018-07-27T16:02:45.752Z,74.85
2018-07-27T16:05:15.861Z,75.91
2018-07-27T16:07:45.900Z,78.60
2018-07-27T16:10:15.968Z,76.75
2018-07-27T16:12:45.803Z,78.92
2018-07-27T16:15:15.752Z,81.20
2018-07-27T16:17:45.664Z,79.49
2018-07-27T16:20:15.631Z,76.79
2018-07-27T16:22:45.763Z,77.07
2018-07-27T16:25:15.747Z,77.28
2018-07-27T16:27:46.000Z,75.75
2018-07-27T16:30:16.001Z,75.33
2018-07-27T16:32:46.155Z,69.37
2018-07-27T16:35:16.547Z,71.79
2018-07-27T16:37:47.375Z,76.80
2018-07-27T16:40:17.738Z,81.11
2018-07-27T16:42:47.980Z,81.33
2018-07-27T16:45:18.090Z,78.18
2018-07-27T16:47:48.297Z,79.13
2018-07-27T16:50:18.211Z,80.90
2018-07-27T16:52:48.212Z,84.22
2018-07-27T16:55:18.349Z,86.65
2018-07-27T16:57:48.413Z,91.04
2018-07-27T17:00:18.552Z,93.29
2018-07-27T17:02:48.463Z,96.57
2018-07-27T17:05:18.733Z,95.90
2018-07-27T17:07:48.639Z,96.61
2018-07-27T17:10:19.060Z,98.50
2018-07-27T17:12:49.388Z,98.28
2018-07-27T17:15:19.747Z,99.80
2018-07-27T17:17:50.027Z,100.00
2018-07-27T17:20:20.616Z,100.00
2018-07-27T17:22:50.463Z,100.00
2018-07-27T17:25:20.861Z,100.00
2018-07-27T17:27:50.744Z,100.00
2018-07-27T17:30:20.893Z,100.00
2018-07-27T17:32:50.801Z,100.00
2018-07-27T17:35:20.787Z,100.00
2018-07-27T17:37:50.944Z,100.00
2018-07-27T17:40:21.059Z,100.00
2018-07-27T17:42:51.069Z,100.00
2018-07-27T17:45:21.620Z,100.00
2018-07-27T17:47:51.533Z,100.00
2018-07-27T17:50:28.148Z,100.00
2018-07-27T17:52:59.601Z,100.00
2018-07-27T17:55:29.700Z,100.00
2018-07-27T17:57:59.915Z,100.00
2018-07-27T18:00:29.961Z,100.00
2018-07-27T18:03:00.091Z,100.00
2018-07-27T18:05:30.110Z,100.00
2018-07-27T18:08:00.218Z,100.00
2018-07-27T18:10:30.373Z,100.00
2018-07-27T18:13:00.434Z,100.00
2018-07-27T18:15:30.752Z,100.00
2018-07-27T18:18:00.752Z,100.00
2018-07-27T18:20:30.987Z,100.00
2018-07-27T18:23:01.069Z,100.00
2018-07-27T18:25:31.264Z,100.00
2018-07-27T18:28:01.416Z,100.00
2018-07-27T18:30:31.653Z,100.00
2018-07-27T18:33:01.701Z,100.00
2018-07-27T18:35:31.807Z,100.00
2018-07-27T18:38:01.816Z,100.00
2018-07-27T18:40:32.104Z,100.00
2018-07-27T18:43:02.262Z,100.00
2018-07-27T18:45:32.016Z,100.00
2018-07-27T18:48:02.081Z,100.00
2018-07-27T18:50:32.349Z,100.00
2018-07-27T18:53:02.368Z,100.00
2018-07-27T18:55:32.440Z,100.00
2018-07-27T18:58:02.491Z,100.00
2018-07-27T19:00:32.472Z,100.00
2018-07-27T19:03:02.692Z,100.00
2018-07-27T19:05:32.598Z,100.00
2018-07-27T19:08:02.724Z,100.00
2018-07-27T19:10:33.084Z,100.00
2018-07-27T19:13:03.031Z,100.00
2018-07-27T19:15:33.808Z,100.00
2018-07-27T19:18:04.076Z,100.00
2018-07-27T19:20:34.203Z,100.00
2018-07-27T19:23:04.343Z,100.00
2018-07-27T19:25:34.742Z,100.00
2018-07-27T19:28:04.852Z,100.00
2018-07-27T19:30:34.773Z,100.00
2018-07-27T19:33:04.724Z,100.00
2018-07-27T19:35:35.059Z,100.00
2018-07-27T19:38:05.112Z,100.00
2018-07-27T19:40:35.952Z,100.00
2018-07-27T19:43:05.864Z,100.00
2018-07-27T19:45:35.708Z,100.00
2018-07-27T19:48:06.076Z,100.00
2018-07-27T19:50:36.253Z,100.00
2018-07-27T19:53:06.963Z,100.00
2018-07-27T19:55:36.952Z,100.00
2018-07-27T19:58:07.243Z,100.00
2018-07-27T20:00:37.307Z,100.00
2018-07-27T20:03:07.412Z,100.00
2018-07-27T20:05:37.792Z,100.00
2018-07-27T20:08:08.706Z,100.00
2018-07-27T20:10:39.280Z,100.00
2018-07-27T20:13:09.905Z,100.00
2018-07-27T20:15:39.882Z,100.00
2018-07-27T20:18:10.125Z,100.00
2018-07-27T20:20:40.639Z,100.00
2018-07-27T20:23:10.621Z,100.00
2018-07-27T20:25:40.796Z,100.00
2018-07-27T20:28:10.936Z,100.00
2018-07-27T20:30:40.835Z,100.00
2018-07-27T20:33:10.862Z,100.00
2018-07-27T20:35:40.799Z,100.00
2018-07-27T20:38:11.528Z,100.00
2018-07-27T20:40:41.596Z,100.00
2018-07-27T20:43:12.272Z,100.00
2018-07-27T20:45:42.470Z,100.00
2018-07-27T20:48:12.624Z,100.00
2018-07-27T20:50:42.516Z,100.00
2018-07-27T20:53:13.171Z,100.00
2018-07-27T20:55:43.812Z,100.00
2018-07-27T20:58:14.117Z,100.00
2018-07-27T21:00:45.354Z,100.00
2018-07-27T21:03:15.704Z,100.00
2018-07-27T21:05:45.795Z,100.00
2018-07-27T21:08:16.076Z,100.00
2018-07-27T21:10:46.169Z,100.00
2018-07-27T21:13:16.262Z,100.00
2018-07-27T21:15:46.576Z,100.00
2018-07-27T21:18:16.926Z,100.00
2018-07-27T21:20:46.875Z,100.00
2018-07-27T21:23:17.038Z,100.00
2018-07-27T21:25:47.168Z,100.00
2018-07-27T21:28:17.570Z,100.00
2018-07-27T21:30:47.681Z,100.00
2018-07-27T21:33:17.844Z,100.00
2018-07-27T21:35:48.066Z,100.00
2018-07-27T21:38:18.137Z,100.00
2018-07-27T21:40:48.308Z,100.00
2018-07-27T21:43:18.452Z,100.00
2018-07-27T21:45:48.336Z,100.00
2018-07-27T21:48:18.453Z,100.00
2018-07-27T21:50:48.333Z,100.00
2018-07-27T21:53:18.581Z,100.00
2018-07-27T21:55:48.951Z,100.00
2018-07-27T21:58:18.859Z,100.00
2018-07-27T22:00:48.688Z,100.00
2018-07-27T22:03:18.826Z,100.00
2018-07-27T22:05:49.192Z,100.00
2018-07-27T22:08:19.292Z,100.00
2018-07-27T22:10:49.440Z,100.00
2018-07-27T22:13:19.894Z,100.00
2018-07-27T22:15:49.997Z,100.00
2018-07-27T22:18:20.729Z,100.00
2018-07-27T22:20:50.989Z,100.00
2018-07-27T22:23:21.431Z,100.00
2018-07-27T22:25:51.880Z,100.00
2018-07-27T22:28:21.923Z,100.00
2018-07-27T22:30:51.818Z,100.00
2018-07-27T22:33:22.238Z,100.00
2018-07-27T22:35:52.395Z,100.00
2018-07-27T22:38:22.736Z,100.00
2018-07-27T22:40:53.387Z,100.00
2018-07-27T22:43:23.392Z,100.00
2018-07-27T22:45:53.176Z,100.00
2018-07-27T22:48:23.067Z,100.00
2018-07-27T22:50:53.480Z,100.00
2018-07-27T22:53:23.363Z,100.00
2018-07-27T22:55:53.533Z,100.00
2018-07-27T22:58:23.656Z,100.00
2018-07-27T23:00:54.006Z,100.00
2018-07-27T23:03:24.180Z,100.00
2018-07-27T23:05:54.187Z,100.00
2018-07-27T23:08:24.252Z,100.00
2018-07-27T23:10:54.207Z,100.00
2018-07-27T23:13:24.218Z,100.00
2018-07-27T23:15:54.404Z,100.00
2018-07-27T23:18:24.622Z,100.00
2018-07-27T23:20:54.633Z,100.00
2018-07-27T23:23:25.035Z,100.00
2018-07-27T23:25:54.947Z,100.00
2018-07-27T23:28:25.298Z,100.00
2018-07-27T23:30:55.399Z,100.00
2018-07-27T23:33:25.403Z,100.00
2018-07-27T23:35:55.401Z,100.00
2018-07-27T23:38:25.653Z,100.00
2018-07-27T23:40:55.776Z,100.00
2018-07-27T23:43:25.881Z,100.00
2018-07-27T23:45:55.739Z,100.00
2018-07-27T23:48:25.807Z,100.00
2018-07-27T23:50:55.708Z,100.00
2018-07-27T23:53:25.828Z,100.00
2018-07-27T23:55:55.744Z,100.00
2018-07-27T23:58:25.926Z,100.00
